createdAt,value
2018-01-07T00:00:51.256Z,34.13
2018-01-07T00:03:18.756Z,29.37
2018-01-07T00:05:46.262Z,32.22
2018-01-07T00:08:13.811Z,34.15
2018-01-07T00:10:42.071Z,38.10
2018-01-07T00:13:09.601Z,43.22
2018-01-07T00:15:37.104Z,33.28
2018-01-07T00:18:05.382Z,31.17
2018-01-07T00:20:33.672Z,32.17
2018-01-07T00:23:01.181Z,37.50
2018-01-07T00:25:28.711Z,30.98
2018-01-07T00:27:56.217Z,32.67
2018-01-07T00:30:23.748Z,31.52
2018-01-07T00:32:51.252Z,26.20
2018-01-07T00:35:19.550Z,29.45
2018-01-07T00:37:47.056Z,26.90
2018-01-07T00:40:15.552Z,30.83
2018-01-07T00:42:43.084Z,29.05
2018-01-07T00:45:10.585Z,27.83
2018-01-07T00:47:38.107Z,27.35
2018-01-07T00:50:05.607Z,26.25
2018-01-07T00:52:33.900Z,31.42
2018-01-07T00:55:02.172Z,31.33
2018-01-07T00:57:30.448Z,31.42
2018-01-07T00:59:58.740Z,32.22
2018-01-07T01:02:26.248Z,30.70
2018-01-07T01:04:53.765Z,33.50
2018-01-07T01:07:21.286Z,29.92
2018-01-07T01:09:48.793Z,24.58
2018-01-07T01:12:16.318Z,27.52
2018-01-07T01:14:44.589Z,26.62
2018-01-07T01:17:12.120Z,24.75
2018-01-07T01:19:39.620Z,23.67
2018-01-07T01:22:07.910Z,24.20
2018-01-07T01:24:35.401Z,27.27
2018-01-07T01:27:02.923Z,25.48
2018-01-07T01:29:31.204Z,24.77
2018-01-07T01:31:58.701Z,28.73
2018-01-07T01:34:26.212Z,28.15
2018-01-07T01:36:54.482Z,69.78
2018-01-07T01:39:22.788Z,34.88
2018-01-07T01:41:50.297Z,37.80
2018-01-07T01:44:17.812Z,38.80
2018-01-07T01:46:45.337Z,23.05
2018-01-07T01:49:23.364Z,29.65
2018-01-07T01:51:50.878Z,23.45
2018-01-07T01:54:18.375Z,23.95
2018-01-07T01:56:46.669Z,44.00
2018-01-07T01:59:14.176Z,118.50
2018-01-07T02:01:41.688Z,257.17
2018-01-07T02:04:09.217Z,118.97
2018-01-07T02:06:36.710Z,57.15
2018-01-07T02:09:04.247Z,29.75
2018-01-07T02:11:32.508Z,22.90
2018-01-07T02:14:00.004Z,22.00
2018-01-07T02:16:27.544Z,22.52
2018-01-07T02:18:55.817Z,21.87
2018-01-07T02:21:24.104Z,41.08
2018-01-07T02:23:51.609Z,28.73
2018-01-07T02:26:19.128Z,50.97
2018-01-07T02:28:46.654Z,49.38
2018-01-07T02:31:14.162Z,52.15
2018-01-07T02:33:41.692Z,43.35
2018-01-07T02:36:09.969Z,92.60
2018-01-07T02:38:39.275Z,90.53
2018-01-07T02:41:07.546Z,46.83
2018-01-07T02:43:35.850Z,48.30
2018-01-07T02:46:03.357Z,40.63
2018-01-07T02:48:30.857Z,73.57
2018-01-07T02:50:59.168Z,145.62
2018-01-07T02:53:26.672Z,66.93
2018-01-07T02:55:54.207Z,106.45
2018-01-07T02:58:26.401Z,100.90
2018-01-07T03:00:53.916Z,97.07
2018-01-07T03:03:21.417Z,88.30
2018-01-07T03:05:48.923Z,63.00
2018-01-07T03:08:16.451Z,217.80
2018-01-07T03:10:44.724Z,159.25
2018-01-07T03:13:13.017Z,93.18
2018-01-07T03:15:41.276Z,141.60
2018-01-07T03:18:09.560Z,134.95
2018-01-07T03:20:37.848Z,96.63
2018-01-07T03:23:05.342Z,86.53
2018-01-07T03:25:32.863Z,92.72
2018-01-07T03:28:01.220Z,45.88
2018-01-07T03:30:28.722Z,143.23
2018-01-07T03:32:56.248Z,150.60
2018-01-07T03:35:24.517Z,152.23
2018-01-07T03:37:55.619Z,158.60
2018-01-07T03:40:23.121Z,232.37
2018-01-07T03:42:50.625Z,200.35
2018-01-07T03:45:18.157Z,116.62
2018-01-07T03:47:46.433Z,169.45
2018-01-07T03:50:14.723Z,132.20
2018-01-07T03:52:42.234Z,331.75
2018-01-07T03:55:09.736Z,214.52
2018-01-07T03:57:38.030Z,281.80
2018-01-07T04:00:05.545Z,284.13
2018-01-07T04:02:33.078Z,273.48
2018-01-07T04:05:00.578Z,273.02
2018-01-07T04:07:30.792Z,330.02
2018-01-07T04:09:58.302Z,243.60
2018-01-07T04:12:26.560Z,262.40
2018-01-07T04:14:54.084Z,161.75
2018-01-07T04:17:21.576Z,113.03
2018-01-07T04:19:49.099Z,317.25
2018-01-07T04:22:16.615Z,275.20
2018-01-07T04:24:44.104Z,146.77
2018-01-07T04:27:11.620Z,342.67
2018-01-07T04:29:39.123Z,393.63
2018-01-07T04:32:06.627Z,265.83
2018-01-07T04:34:34.917Z,248.40
2018-01-07T04:37:02.420Z,143.13
2018-01-07T04:39:29.946Z,131.95
2018-01-07T04:41:57.445Z,172.55
2018-01-07T04:44:24.940Z,247.05
2018-01-07T04:46:53.216Z,60.90
2018-01-07T04:49:21.480Z,165.07
2018-01-07T04:51:49.003Z,247.90
2018-01-07T04:54:16.499Z,218.07
2018-01-07T04:56:44.231Z,90.93
2018-01-07T04:59:11.752Z,117.18
2018-01-07T05:01:39.264Z,218.75
2018-01-07T05:04:06.798Z,139.30
2018-01-07T05:06:34.301Z,247.68
2018-01-07T05:09:02.576Z,290.12
2018-01-07T05:11:30.869Z,371.85
2018-01-07T05:13:59.138Z,81.47
2018-01-07T05:16:27.423Z,137.57
2018-01-07T05:18:56.703Z,320.05
2018-01-07T05:21:24.225Z,345.20
2018-01-07T05:23:51.748Z,300.87
2018-01-07T05:26:20.013Z,358.17
2018-01-07T05:28:48.303Z,172.27
2018-01-07T05:31:16.568Z,311.90
2018-01-07T05:33:44.841Z,448.65
2018-01-07T05:36:12.360Z,450.92
2018-01-07T05:38:39.860Z,327.15
2018-01-07T05:41:07.386Z,390.40
2018-01-07T05:43:34.896Z,404.83
2018-01-07T05:46:03.173Z,303.88
2018-01-07T05:48:31.469Z,295.42
2018-01-07T05:50:58.977Z,260.55
2018-01-07T05:53:26.493Z,180.12
2018-01-07T05:55:53.997Z,421.40
2018-01-07T05:58:21.544Z,164.60
2018-01-07T06:00:49.069Z,355.12
2018-01-07T06:03:16.574Z,215.25
2018-01-07T06:05:44.093Z,374.40
2018-01-07T06:08:11.616Z,288.70
2018-01-07T06:10:39.917Z,267.10
2018-01-07T06:13:07.438Z,174.50
2018-01-07T06:15:34.950Z,299.17
2018-01-07T06:18:03.393Z,343.75
2018-01-07T06:20:31.665Z,324.65
2018-01-07T06:22:59.190Z,140.00
2018-01-07T06:25:26.697Z,414.45
2018-01-07T06:27:54.980Z,303.12
2018-01-07T06:30:24.274Z,362.65
2018-01-07T06:32:52.584Z,147.15
2018-01-07T06:35:20.112Z,186.93
2018-01-07T06:37:47.613Z,260.85
2018-01-07T06:40:15.145Z,279.98
2018-01-07T06:42:42.657Z,357.17
2018-01-07T06:45:10.187Z,288.33
2018-01-07T06:47:37.711Z,280.35
2018-01-07T06:50:05.987Z,251.07
2018-01-07T06:52:34.286Z,360.60
2018-01-07T06:55:01.888Z,332.67
2018-01-07T06:57:29.422Z,338.83
2018-01-07T06:59:56.928Z,460.55
2018-01-07T07:02:24.550Z,283.40
2018-01-07T07:04:52.081Z,378.00
2018-01-07T07:07:19.613Z,326.15
2018-01-07T07:09:48.421Z,229.25
2018-01-07T07:12:16.886Z,235.30
2018-01-07T07:14:44.408Z,215.93
2018-01-07T07:17:11.917Z,233.95
2018-01-07T07:19:40.202Z,372.98
2018-01-07T07:22:08.503Z,169.37
2018-01-07T07:24:36.009Z,326.37
2018-01-07T07:27:03.544Z,226.02
2018-01-07T07:29:31.058Z,248.77
2018-01-07T07:31:59.339Z,378.75
2018-01-07T07:34:27.650Z,334.17
2018-01-07T07:36:55.166Z,136.95
2018-01-07T07:39:23.474Z,157.90
2018-01-07T07:41:51.003Z,166.65
2018-01-07T07:44:19.310Z,306.25
2018-01-07T07:46:46.834Z,425.25
2018-01-07T07:49:18.425Z,282.87
2018-01-07T07:51:45.964Z,85.32
2018-01-07T07:54:13.489Z,65.70
2018-01-07T07:56:41.519Z,456.25
2018-01-07T07:59:11.236Z,256.40
2018-01-07T08:01:38.936Z,399.92
2018-01-07T08:04:06.468Z,336.87
2018-01-07T08:06:34.031Z,541.22
2018-01-07T08:09:02.630Z,163.40
2018-01-07T08:11:30.177Z,198.32
2018-01-07T08:13:57.686Z,344.40
2018-01-07T08:16:25.948Z,259.35
2018-01-07T08:18:53.486Z,451.02
2018-01-07T08:21:21.578Z,446.25
2018-01-07T08:23:49.115Z,656.40
2018-01-07T08:26:16.626Z,380.92
2018-01-07T08:28:44.914Z,355.27
2018-01-07T08:31:12.433Z,413.52
2018-01-07T08:33:39.945Z,228.00
2018-01-07T08:36:07.478Z,79.03
2018-01-07T08:38:35.740Z,537.10
2018-01-07T08:41:03.262Z,111.57
2018-01-07T08:43:30.768Z,387.52
2018-01-07T08:45:59.059Z,78.53
2018-01-07T08:48:26.570Z,316.23
2018-01-07T08:50:54.085Z,293.00
2018-01-07T08:53:21.611Z,618.58
2018-01-07T08:55:49.137Z,188.68
2018-01-07T08:58:16.674Z,102.93
2018-01-07T09:00:44.187Z,271.85
2018-01-07T09:03:11.709Z,347.98
2018-01-07T09:05:39.232Z,445.40
2018-01-07T09:08:07.516Z,500.02
2018-01-07T09:10:35.046Z,524.58
2018-01-07T09:13:03.345Z,428.27
2018-01-07T09:15:31.645Z,465.58
2018-01-07T09:17:59.163Z,635.53
2018-01-07T09:20:26.673Z,624.85
2018-01-07T09:22:54.213Z,443.33
2018-01-07T09:25:21.722Z,372.42
2018-01-07T09:27:49.248Z,507.75
2018-01-07T09:30:17.795Z,489.90
2018-01-07T09:32:46.073Z,585.85
2018-01-07T09:35:14.376Z,372.55
2018-01-07T09:37:41.905Z,284.62
2018-01-07T09:40:10.185Z,256.17
2018-01-07T09:42:38.484Z,478.45
2018-01-07T09:45:06.015Z,425.08
2018-01-07T09:47:34.313Z,180.25
2018-01-07T09:50:02.606Z,522.83
2018-01-07T09:52:30.118Z,675.60
2018-01-07T09:54:57.624Z,547.63
2018-01-07T09:57:25.153Z,494.75
2018-01-07T09:59:52.681Z,207.07
2018-01-07T10:02:20.188Z,678.10
2018-01-07T10:04:48.551Z,643.22
2018-01-07T10:07:16.105Z,629.95
2018-01-07T10:09:43.734Z,382.58
2018-01-07T10:12:11.252Z,515.30
2018-01-07T10:14:38.790Z,612.83
2018-01-07T10:17:06.357Z,310.80
2018-01-07T10:19:34.636Z,600.25
2018-01-07T10:22:02.928Z,619.00
2018-01-07T10:24:31.200Z,368.17
2018-01-07T10:26:59.503Z,154.48
2018-01-07T10:29:27.013Z,115.47
2018-01-07T10:31:55.379Z,411.27
2018-01-07T10:34:22.917Z,362.40
2018-01-07T10:36:52.359Z,134.00
2018-01-07T10:39:19.898Z,148.65
2018-01-07T10:41:47.401Z,61.08
2018-01-07T10:44:15.676Z,147.65
2018-01-07T10:46:43.965Z,579.65
2018-01-07T10:49:11.488Z,150.68
2018-01-07T10:51:39.015Z,511.75
2018-01-07T10:54:06.536Z,511.40
2018-01-07T10:56:34.833Z,255.82
2018-01-07T10:59:02.352Z,402.37
2018-01-07T11:01:35.587Z,248.80
2018-01-07T11:04:03.104Z,338.70
2018-01-07T11:06:30.623Z,197.68
2018-01-07T11:08:58.157Z,348.80
2018-01-07T11:11:25.669Z,313.05
2018-01-07T11:13:53.169Z,143.13
2018-01-07T11:16:21.452Z,143.23
2018-01-07T11:18:48.953Z,60.03
2018-01-07T11:21:16.490Z,90.93
2018-01-07T11:23:43.992Z,89.87
2018-01-07T11:26:11.493Z,55.85
2018-01-07T11:28:39.036Z,114.85
2018-01-07T11:31:07.312Z,93.50
2018-01-07T11:33:35.582Z,106.55
2018-01-07T11:36:03.109Z,61.15
2018-01-07T11:38:30.613Z,47.38
2018-01-07T11:40:58.882Z,75.00
2018-01-07T11:43:27.180Z,59.20
2018-01-07T11:45:54.970Z,44.85
2018-01-07T11:48:22.492Z,42.72
2018-01-07T11:50:50.762Z,41.35
2018-01-07T11:53:19.072Z,44.45
2018-01-07T11:55:46.601Z,41.47
2018-01-07T11:58:16.841Z,35.15
2018-01-07T12:00:44.370Z,32.78
2018-01-07T12:03:11.885Z,31.02
2018-01-07T12:08:43.102Z,33.65
2018-01-07T12:11:10.629Z,33.75
2018-01-07T12:13:38.912Z,36.40
2018-01-07T12:16:06.432Z,29.80
2018-01-07T12:18:33.970Z,39.65
2018-01-07T12:21:01.546Z,37.10
2018-01-07T12:23:29.098Z,35.17
2018-01-07T12:25:56.618Z,38.78
2018-01-07T12:28:24.132Z,40.12
2018-01-07T12:30:51.688Z,41.90
2018-01-07T12:33:19.208Z,34.50
2018-01-07T12:35:46.762Z,43.22
2018-01-07T12:38:14.303Z,38.00
2018-01-07T12:40:41.828Z,32.65
2018-01-07T12:43:10.699Z,36.95
2018-01-07T12:45:39.006Z,29.73
2018-01-07T12:48:06.522Z,35.60
2018-01-07T12:50:34.094Z,31.98
2018-01-07T12:53:01.623Z,32.78
2018-01-07T12:55:29.288Z,27.62
2018-01-07T12:57:56.842Z,34.28
2018-01-07T13:00:24.371Z,33.83
2018-01-07T13:02:51.951Z,30.77
2018-01-07T13:05:19.524Z,31.52
2018-01-07T13:07:47.120Z,28.17
2018-01-07T13:10:15.562Z,23.90
2018-01-07T13:12:43.237Z,34.33
2018-01-07T13:15:10.790Z,29.87
2018-01-07T13:17:38.377Z,30.30
2018-01-07T13:20:05.899Z,28.23
2018-01-07T13:22:33.513Z,25.62
2018-01-07T13:25:17.825Z,35.80
2018-01-07T13:27:45.582Z,28.30
2018-01-07T13:30:13.132Z,27.37
2018-01-07T13:32:40.716Z,30.48
2018-01-07T13:35:08.267Z,29.83
2018-01-07T13:37:35.835Z,31.33
2018-01-07T13:40:03.412Z,29.15
2018-01-07T13:42:31.127Z,30.40
2018-01-07T13:44:58.662Z,28.00
2018-01-07T13:47:26.957Z,29.83
2018-01-07T13:49:54.475Z,33.58
2018-01-07T13:52:21.982Z,28.15
2018-01-07T13:54:49.509Z,25.35
2018-01-07T13:57:17.021Z,26.40
2018-01-07T13:59:45.536Z,31.30
2018-01-07T14:02:13.045Z,25.75
2018-01-07T14:04:40.574Z,25.52
2018-01-07T14:07:08.129Z,27.52
2018-01-07T14:09:35.628Z,24.92
2018-01-07T14:12:03.157Z,23.95
2018-01-07T14:14:31.421Z,21.10
2018-01-07T14:16:58.966Z,32.45
2018-01-07T14:19:26.473Z,27.08
2018-01-07T14:21:53.986Z,23.65
2018-01-07T14:24:21.521Z,22.58
2018-01-07T14:26:49.020Z,26.02
2018-01-07T14:29:16.537Z,26.73
2018-01-07T14:31:44.036Z,25.45
2018-01-07T14:34:11.542Z,19.92
2018-01-07T14:36:39.068Z,22.50
2018-01-07T14:39:07.353Z,22.92
2018-01-07T14:41:34.913Z,25.83
2018-01-07T14:44:03.181Z,24.30
2018-01-07T14:46:31.461Z,19.77
2018-01-07T14:48:59.754Z,27.02
2018-01-07T14:51:28.022Z,26.48
2018-01-07T14:53:56.330Z,22.05
2018-01-07T14:56:23.842Z,26.52
2018-01-07T14:58:51.353Z,19.70
2018-01-07T15:01:18.859Z,26.50
2018-01-07T15:03:46.382Z,22.05
2018-01-07T15:06:13.880Z,22.52
2018-01-07T15:08:41.388Z,20.23
2018-01-07T15:11:09.076Z,21.83
2018-01-07T15:13:36.584Z,20.77
2018-01-07T15:16:04.874Z,22.02
2018-01-07T15:18:32.448Z,20.20
2018-01-07T15:20:59.953Z,25.75
2018-01-07T15:23:27.452Z,25.17
2018-01-07T15:25:54.970Z,26.15
2018-01-07T15:28:22.470Z,28.35
2018-01-07T15:30:49.997Z,20.20
2018-01-07T15:33:17.514Z,23.90
2018-01-07T15:35:45.898Z,24.00
2018-01-07T15:38:13.450Z,25.67
2018-01-07T15:40:40.952Z,27.58
2018-01-07T15:43:08.501Z,26.20
2018-01-07T15:45:35.997Z,28.00
2018-01-07T15:48:04.281Z,31.37
2018-01-07T15:50:31.805Z,24.95
2018-01-07T15:52:59.305Z,23.83
2018-01-07T15:55:26.809Z,25.25
2018-01-07T15:57:54.324Z,25.37
2018-01-07T16:00:21.828Z,26.50
2018-01-07T16:02:49.353Z,24.20
2018-01-07T16:05:16.862Z,28.33
2018-01-07T16:07:44.364Z,20.40
2018-01-07T16:10:11.896Z,21.75
2018-01-07T16:12:40.170Z,26.02
2018-01-07T16:15:07.672Z,23.12
2018-01-07T16:17:35.202Z,23.00
2018-01-07T16:20:03.470Z,28.80
2018-01-07T16:22:31.733Z,28.25
2018-01-07T16:24:59.302Z,22.85
2018-01-07T16:27:26.774Z,22.60
2018-01-07T16:29:55.056Z,26.23
2018-01-07T16:32:23.355Z,23.25
2018-01-07T16:34:50.861Z,26.62
2018-01-07T16:37:18.388Z,21.02
2018-01-07T16:39:45.894Z,24.65
2018-01-07T16:42:13.418Z,23.00
2018-01-07T16:44:40.949Z,29.98
2018-01-07T16:47:08.448Z,25.02
2018-01-07T16:49:35.988Z,23.38
2018-01-07T16:52:03.489Z,21.62
2018-01-07T16:54:31.010Z,25.33
2018-01-07T16:56:58.527Z,19.98
2018-01-07T16:59:26.822Z,23.08
2018-01-07T17:01:54.354Z,21.58
2018-01-07T17:04:22.625Z,22.02
2018-01-07T17:06:50.148Z,21.90
2018-01-07T17:09:17.644Z,20.80
2018-01-07T17:11:45.146Z,21.73
2018-01-07T17:14:12.664Z,22.48
2018-01-07T17:16:40.940Z,19.92
2018-01-07T17:19:08.472Z,22.85
2018-01-07T17:21:36.018Z,20.45
2018-01-07T17:24:04.281Z,26.08
2018-01-07T17:26:31.809Z,22.73
2018-01-07T17:29:00.853Z,20.15
2018-01-07T17:31:28.361Z,23.75
2018-01-07T17:33:56.650Z,20.58
2018-01-07T17:36:24.918Z,18.85
2018-01-07T17:38:53.211Z,21.05
2018-01-07T17:41:20.724Z,19.30
2018-01-07T17:43:48.249Z,18.37
2018-01-07T17:46:15.753Z,18.58
2018-01-07T17:48:43.256Z,21.08
2018-01-07T17:51:10.805Z,19.75
2018-01-07T17:53:39.090Z,22.48
2018-01-07T17:56:06.594Z,18.87
2018-01-07T17:58:34.148Z,19.73
2018-01-07T18:01:01.648Z,15.65
2018-01-07T18:03:29.933Z,21.80
2018-01-07T18:05:58.213Z,22.13
2018-01-07T18:08:26.491Z,19.80
2018-01-07T18:10:54.772Z,26.52
2018-01-07T18:13:23.039Z,23.70
2018-01-07T18:15:51.335Z,23.33
2018-01-07T18:18:18.843Z,22.10
2018-01-07T18:20:46.353Z,23.27
2018-01-07T18:23:13.881Z,19.00
2018-01-07T18:25:41.386Z,21.15
2018-01-07T18:28:08.916Z,18.48
2018-01-07T18:30:37.180Z,25.08
2018-01-07T18:33:05.462Z,19.05
2018-01-07T18:35:33.753Z,21.12
2018-01-07T18:38:02.029Z,24.37
2018-01-07T18:40:30.320Z,21.37
2018-01-07T18:42:57.827Z,18.98
2018-01-07T18:45:25.357Z,28.05
2018-01-07T18:47:52.877Z,24.92
2018-01-07T18:50:20.412Z,19.02
2018-01-07T18:52:47.962Z,23.38
2018-01-07T18:55:16.204Z,19.25
2018-01-07T18:57:43.724Z,20.88
2018-01-07T19:00:11.217Z,19.80
2018-01-07T19:02:38.737Z,24.48
2018-01-07T19:05:06.245Z,27.40
2018-01-07T19:07:33.773Z,21.70
2018-01-07T19:10:02.041Z,23.17
2018-01-07T19:12:29.558Z,27.85
2018-01-07T19:14:57.078Z,25.90
2018-01-07T19:17:25.408Z,26.65
2018-01-07T19:19:52.917Z,28.92
2018-01-07T19:22:20.434Z,25.88
2018-01-07T19:24:47.952Z,29.85
2018-01-07T19:27:15.492Z,27.85
2018-01-07T19:29:43.961Z,26.23
2018-01-07T19:32:11.480Z,27.85
2018-01-07T19:34:39.015Z,30.10
2018-01-07T19:37:06.525Z,27.58
2018-01-07T19:39:40.629Z,29.95
2018-01-07T19:42:08.150Z,28.85
2018-01-07T19:44:35.658Z,31.48
2018-01-07T19:47:03.190Z,32.83
2018-01-07T19:49:30.697Z,27.77
2018-01-07T19:51:59.017Z,29.30
2018-01-07T19:54:26.561Z,27.00
2018-01-07T19:56:54.094Z,30.37
2018-01-07T19:59:22.362Z,32.25
2018-01-07T20:01:49.877Z,24.42
2018-01-07T20:04:17.401Z,34.38
2018-01-07T20:06:45.676Z,28.52
2018-01-07T20:09:13.974Z,24.80
2018-01-07T20:11:41.489Z,21.05
2018-01-07T20:14:09.795Z,25.92
2018-01-07T20:16:38.091Z,26.42
2018-01-07T20:19:05.598Z,26.52
2018-01-07T20:21:33.135Z,22.05
2018-01-07T20:24:00.661Z,31.30
2018-01-07T20:26:28.183Z,30.55
2018-01-07T20:28:55.702Z,28.08
2018-01-07T20:31:23.207Z,25.25
2018-01-07T20:33:50.761Z,23.20
2018-01-07T20:36:18.329Z,25.17
2018-01-07T20:38:46.880Z,27.33
2018-01-07T20:41:14.395Z,26.87
2018-01-07T20:43:42.690Z,23.90
2018-01-07T20:46:11.156Z,30.27
2018-01-07T20:48:40.447Z,24.73
2018-01-07T20:51:08.745Z,25.05
2018-01-07T20:53:36.280Z,24.02
2018-01-07T20:56:04.584Z,25.88
2018-01-07T20:58:32.118Z,30.88
2018-01-07T21:01:00.393Z,25.60
2018-01-07T21:03:27.926Z,22.50
2018-01-07T21:05:55.450Z,27.10
2018-01-07T21:08:23.603Z,26.02
2018-01-07T21:10:53.143Z,30.40
2018-01-07T21:13:20.662Z,24.42
2018-01-07T21:15:48.972Z,26.60
2018-01-07T21:18:16.484Z,35.25
2018-01-07T21:20:44.013Z,29.23
2018-01-07T21:23:11.528Z,25.88
2018-01-07T21:25:39.811Z,22.67
2018-01-07T21:28:07.351Z,26.85
2018-01-07T21:30:35.626Z,23.80
2018-01-07T21:33:03.916Z,26.65
2018-01-07T21:35:32.202Z,28.92
2018-01-07T21:37:59.720Z,25.60
2018-01-07T21:40:27.258Z,26.48
2018-01-07T21:42:54.769Z,27.45
2018-01-07T21:45:23.098Z,28.05
2018-01-07T21:47:50.643Z,27.60
2018-01-07T21:50:18.158Z,29.92
2018-01-07T21:52:46.477Z,26.95
2018-01-07T21:55:14.038Z,26.45
2018-01-07T21:57:41.578Z,27.17
2018-01-07T22:00:39.616Z,33.20
2018-01-07T22:03:18.998Z,27.33
2018-01-07T22:05:54.252Z,28.67
2018-01-07T22:08:28.714Z,30.50
2018-01-07T22:10:56.223Z,27.58
2018-01-07T22:13:23.736Z,28.60
2018-01-07T22:15:51.277Z,29.05
2018-01-07T22:18:19.794Z,27.90
2018-01-07T22:20:47.334Z,28.25
2018-01-07T22:23:14.846Z,30.70
2018-01-07T22:25:42.358Z,30.10
2018-01-07T22:28:10.668Z,27.13
2018-01-07T22:30:38.176Z,24.63
2018-01-07T22:33:05.701Z,28.55
2018-01-07T22:35:33.201Z,28.55
2018-01-07T22:38:05.323Z,31.08
2018-01-07T22:40:32.849Z,29.25
2018-01-07T22:43:00.361Z,31.12
2018-01-07T22:45:27.889Z,29.52
2018-01-07T22:48:01.949Z,29.33
2018-01-07T22:50:31.407Z,29.80
2018-01-07T22:52:59.673Z,29.70
2018-01-07T22:55:27.956Z,28.80
2018-01-07T22:57:56.248Z,29.48
2018-01-07T23:00:24.524Z,28.80
2018-01-07T23:02:52.054Z,31.30
2018-01-07T23:05:19.564Z,28.17
2018-01-07T23:07:47.108Z,32.53
2018-01-07T23:10:14.631Z,31.92
2018-01-07T23:12:42.165Z,28.00
2018-01-07T23:15:09.695Z,29.10
2018-01-07T23:17:37.206Z,29.23
2018-01-07T23:20:04.729Z,30.70
2018-01-07T23:22:32.255Z,32.50
2018-01-07T23:25:00.526Z,28.45
2018-01-07T23:27:28.834Z,30.95
2018-01-07T23:29:56.345Z,33.05
2018-01-07T23:32:23.869Z,35.10
2018-01-07T23:34:51.378Z,36.78
2018-01-07T23:37:19.659Z,35.95
2018-01-07T23:39:48.960Z,32.53
2018-01-07T23:42:17.238Z,33.65
2018-01-07T23:44:45.531Z,36.83
2018-01-07T23:47:13.062Z,31.52
2018-01-07T23:49:41.539Z,32.83
2018-01-07T23:52:09.068Z,33.60
2018-01-07T23:54:36.574Z,26.73
2018-01-07T23:57:04.853Z,34.67
2018-01-07T23:59:34.187Z,30.65
